createdAt,value
2019-05-19T00:02:27.525Z,93.90
2019-05-19T00:04:56.468Z,94.10
2019-05-19T00:07:25.163Z,94.20
2019-05-19T00:09:53.969Z,94.30
2019-05-19T00:12:22.742Z,94.50
2019-05-19T00:14:51.697Z,94.70
2019-05-19T00:17:20.429Z,94.70
2019-05-19T00:19:49.245Z,94.90
2019-05-19T00:22:18.201Z,95.00
2019-05-19T00:24:47.002Z,95.20
2019-05-19T00:27:16.151Z,95.30
2019-05-19T00:29:44.940Z,95.80
2019-05-19T00:32:13.901Z,95.60
2019-05-19T00:34:42.641Z,95.60
2019-05-19T00:37:11.416Z,95.70
2019-05-19T00:39:40.392Z,95.80
2019-05-19T00:42:09.163Z,95.80
2019-05-19T00:44:37.910Z,95.80
2019-05-19T00:47:06.874Z,95.80
2019-05-19T00:49:41.349Z,96.10
2019-05-19T00:52:07.679Z,96.20
2019-05-19T00:54:36.753Z,96.30
2019-05-19T00:57:06.698Z,96.30
2019-05-19T00:59:36.479Z,96.40
2019-05-19T01:02:05.580Z,96.50
2019-05-19T01:04:34.303Z,96.40
2019-05-19T01:07:02.995Z,96.30
2019-05-19T01:09:31.835Z,96.20
2019-05-19T01:12:00.514Z,96.00
2019-05-19T01:14:29.215Z,95.70
2019-05-19T01:16:58.003Z,95.50
2019-05-19T01:19:26.679Z,95.60
2019-05-19T01:21:57.990Z,95.30
2019-05-19T01:24:26.810Z,95.20
2019-05-19T01:26:55.538Z,95.10
2019-05-19T01:29:24.230Z,95.00
2019-05-19T01:31:53.089Z,94.90
2019-05-19T01:34:21.795Z,94.90
2019-05-19T01:36:50.559Z,95.00
2019-05-19T01:39:19.475Z,94.90
2019-05-19T01:41:48.151Z,94.90
2019-05-19T01:44:16.847Z,95.00
2019-05-19T01:46:45.832Z,95.20
2019-05-19T01:49:14.570Z,95.20
2019-05-19T01:51:43.341Z,95.30
2019-05-19T01:54:12.254Z,95.40
2019-05-19T01:56:40.987Z,95.40
2019-05-19T01:59:10.053Z,95.30
2019-05-19T02:01:39.412Z,95.50
2019-05-19T02:04:08.189Z,95.60
2019-05-19T02:06:37.109Z,95.80
2019-05-19T02:09:06.943Z,95.60
2019-05-19T02:11:35.666Z,95.70
2019-05-19T02:14:04.611Z,95.70
2019-05-19T02:16:33.335Z,95.70
2019-05-19T02:19:02.460Z,95.80
2019-05-19T02:21:31.296Z,95.80
2019-05-19T02:24:00.647Z,95.90
2019-05-19T02:26:29.358Z,96.00
2019-05-19T02:28:58.275Z,96.00
2019-05-19T02:31:27.768Z,96.10
2019-05-19T02:33:56.903Z,96.20
2019-05-19T02:36:25.928Z,96.10
2019-05-19T02:38:54.836Z,96.20
2019-05-19T02:41:26.948Z,96.20
2019-05-19T02:43:57.349Z,96.30
2019-05-19T02:46:27.369Z,96.30
2019-05-19T02:48:56.930Z,96.40
2019-05-19T02:51:28.607Z,96.30
2019-05-19T02:53:58.275Z,96.40
2019-05-19T02:56:28.083Z,96.50
2019-05-19T02:58:57.393Z,96.40
2019-05-19T03:01:26.290Z,96.40
2019-05-19T03:03:54.968Z,96.40
2019-05-19T03:06:24.212Z,96.40
2019-05-19T03:08:53.079Z,96.40
2019-05-19T03:11:21.893Z,96.30
2019-05-19T03:13:50.787Z,96.20
2019-05-19T03:16:19.951Z,96.30
2019-05-19T03:18:48.723Z,96.30
2019-05-19T03:21:17.502Z,96.20
2019-05-19T03:23:46.661Z,96.10
2019-05-19T03:26:15.392Z,96.00
2019-05-19T03:28:44.363Z,96.00
2019-05-19T03:31:20.837Z,95.90
2019-05-19T03:33:50.482Z,95.20
2019-05-19T03:36:19.538Z,94.70
2019-05-19T03:38:48.273Z,94.00
2019-05-19T03:41:17.145Z,93.60
2019-05-19T03:43:45.820Z,92.90
2019-05-19T03:46:14.557Z,92.10
2019-05-19T03:48:43.278Z,92.00
2019-05-19T03:51:29.156Z,92.20
2019-05-19T03:53:42.486Z,92.20
2019-05-19T03:56:11.290Z,91.70
2019-05-19T03:58:39.971Z,91.60
2019-05-19T04:01:08.760Z,92.00
2019-05-19T04:03:37.670Z,92.30
2019-05-19T04:06:06.510Z,92.10
2019-05-19T04:08:35.213Z,91.40
2019-05-19T04:11:04.342Z,91.60
2019-05-19T04:13:33.039Z,91.60
2019-05-19T04:16:02.008Z,91.20
2019-05-19T04:18:30.716Z,91.40
2019-05-19T04:20:59.386Z,90.80
2019-05-19T04:23:28.247Z,90.70
2019-05-19T04:25:57.013Z,88.90
2019-05-19T04:28:25.711Z,87.20
2019-05-19T04:30:54.536Z,87.00
2019-05-19T04:33:23.521Z,86.20
2019-05-19T04:35:52.196Z,86.00
2019-05-19T04:38:21.109Z,82.30
2019-05-19T04:40:49.785Z,81.40
2019-05-19T04:43:18.471Z,82.30
2019-05-19T04:45:47.238Z,81.70
2019-05-19T04:48:15.898Z,80.40
2019-05-19T04:50:44.588Z,79.90
2019-05-19T04:53:13.717Z,77.70
2019-05-19T04:55:42.699Z,77.40
2019-05-19T04:58:11.786Z,77.50
2019-05-19T05:00:40.860Z,78.30
2019-05-19T05:03:09.731Z,77.10
2019-05-19T05:05:39.291Z,76.80
2019-05-19T05:08:27.204Z,76.20
2019-05-19T05:10:39.422Z,76.70
2019-05-19T05:13:08.114Z,74.80
2019-05-19T05:15:36.792Z,74.30
2019-05-19T05:18:05.564Z,74.60
2019-05-19T05:20:34.370Z,75.80
2019-05-19T05:23:03.106Z,76.40
2019-05-19T05:25:31.893Z,76.40
2019-05-19T05:28:01.050Z,77.90
2019-05-19T05:30:30.265Z,79.10
2019-05-19T05:32:58.969Z,80.00
2019-05-19T05:35:30.218Z,79.30
2019-05-19T05:37:58.892Z,79.10
2019-05-19T05:40:27.558Z,79.40
2019-05-19T05:42:56.622Z,79.90
2019-05-19T05:45:25.530Z,81.50
2019-05-19T05:47:54.604Z,79.40
2019-05-19T05:50:23.512Z,78.40
2019-05-19T05:52:52.169Z,75.20
2019-05-19T05:55:20.849Z,73.80
2019-05-19T05:57:50.107Z,73.10
2019-05-19T06:00:19.722Z,72.40
2019-05-19T06:02:48.395Z,70.70
2019-05-19T06:05:17.102Z,67.80
2019-05-19T06:07:46.229Z,67.60
2019-05-19T06:10:16.087Z,67.10
2019-05-19T06:12:45.289Z,66.30
2019-05-19T06:15:14.630Z,63.80
2019-05-19T06:17:43.551Z,61.90
2019-05-19T06:20:12.416Z,59.80
2019-05-19T06:22:55.248Z,59.70
2019-05-19T06:25:11.664Z,62.10
2019-05-19T06:27:40.467Z,62.30
2019-05-19T06:30:09.522Z,60.60
2019-05-19T06:32:44.917Z,58.80
2019-05-19T06:35:14.018Z,55.50
2019-05-19T06:37:42.694Z,51.30
2019-05-19T06:40:12.727Z,47.30
2019-05-19T06:42:41.833Z,47.90
2019-05-19T06:45:10.849Z,46.70
2019-05-19T06:47:39.544Z,43.90
2019-05-19T06:50:08.812Z,42.90
2019-05-19T06:52:37.562Z,43.40
2019-05-19T06:55:13.350Z,44.10
2019-05-19T06:57:51.280Z,44.70
2019-05-19T07:00:20.504Z,45.50
2019-05-19T07:02:49.531Z,46.20
2019-05-19T07:05:21.505Z,47.90
2019-05-19T07:07:50.244Z,47.90
2019-05-19T07:10:19.262Z,49.40
2019-05-19T07:12:48.377Z,50.70
2019-05-19T07:15:17.362Z,50.40
2019-05-19T07:17:46.339Z,49.30
2019-05-19T07:20:15.097Z,49.10
2019-05-19T07:22:44.086Z,47.70
2019-05-19T07:25:13.244Z,47.60
2019-05-19T07:27:42.393Z,47.80
2019-05-19T07:30:11.590Z,46.00
2019-05-19T07:32:40.581Z,45.20
2019-05-19T07:35:09.876Z,44.50
2019-05-19T07:37:38.825Z,42.60
2019-05-19T07:40:07.782Z,45.60
2019-05-19T07:42:36.694Z,45.70
2019-05-19T07:45:06.183Z,43.80
2019-05-19T07:47:34.943Z,43.80
2019-05-19T07:50:04.311Z,44.80
2019-05-19T07:52:33.024Z,45.00
2019-05-19T07:55:01.748Z,42.10
2019-05-19T07:57:30.807Z,42.40
2019-05-19T07:59:59.918Z,40.90
2019-05-19T08:02:28.698Z,41.00
2019-05-19T08:04:57.812Z,40.20
2019-05-19T08:07:26.524Z,40.90
2019-05-19T08:09:55.301Z,42.70
2019-05-19T08:12:24.855Z,44.20
2019-05-19T08:14:53.563Z,44.50
2019-05-19T08:17:25.748Z,43.80
2019-05-19T08:19:52.893Z,42.10
2019-05-19T08:22:21.633Z,41.80
2019-05-19T08:24:50.836Z,41.00
2019-05-19T08:27:19.644Z,41.00
2019-05-19T08:29:48.630Z,40.90
2019-05-19T08:32:17.443Z,41.60
2019-05-19T08:34:46.128Z,41.80
2019-05-19T08:37:15.033Z,40.80
2019-05-19T08:39:43.850Z,41.30
2019-05-19T08:42:15.626Z,39.40
2019-05-19T08:44:44.294Z,39.00
2019-05-19T08:47:13.001Z,39.30
2019-05-19T08:49:41.855Z,40.00
2019-05-19T08:52:10.519Z,39.20
2019-05-19T08:54:39.300Z,38.90
2019-05-19T08:57:08.646Z,40.30
2019-05-19T08:59:37.433Z,40.50
2019-05-19T09:02:09.365Z,40.10
2019-05-19T09:04:38.241Z,40.90
2019-05-19T09:07:07.207Z,40.50
2019-05-19T09:09:35.894Z,40.10
2019-05-19T09:12:04.655Z,41.00
2019-05-19T09:14:33.514Z,41.30
2019-05-19T09:17:02.353Z,41.80
2019-05-19T09:19:31.467Z,42.80
2019-05-19T09:22:00.654Z,43.30
2019-05-19T09:24:31.059Z,43.20
2019-05-19T09:27:00.193Z,41.80
2019-05-19T09:29:29.002Z,42.20
2019-05-19T09:31:57.842Z,42.90
2019-05-19T09:34:26.803Z,43.00
2019-05-19T09:36:55.630Z,41.30
2019-05-19T09:39:24.305Z,40.60
2019-05-19T09:41:53.389Z,40.70
2019-05-19T09:44:31.645Z,41.80
2019-05-19T09:47:00.427Z,41.60
2019-05-19T09:49:32.622Z,40.40
2019-05-19T09:52:01.809Z,39.00
2019-05-19T09:54:44.232Z,38.70
2019-05-19T09:57:01.910Z,39.30
2019-05-19T09:59:30.839Z,39.50
2019-05-19T10:01:59.555Z,42.20
2019-05-19T10:04:28.842Z,42.90
2019-05-19T10:06:57.806Z,45.20
2019-05-19T10:09:57.048Z,46.20
2019-05-19T10:12:26.179Z,46.10
2019-05-19T10:14:55.374Z,47.00
2019-05-19T10:17:25.619Z,46.80
2019-05-19T10:19:54.443Z,47.80
2019-05-19T10:22:23.735Z,47.10
2019-05-19T10:25:04.492Z,46.80
2019-05-19T10:27:23.376Z,47.70
2019-05-19T10:29:52.073Z,46.90
2019-05-19T10:32:21.060Z,47.10
2019-05-19T10:34:49.797Z,48.10
2019-05-19T10:37:18.477Z,48.70
2019-05-19T10:39:47.392Z,48.30
2019-05-19T10:42:16.278Z,47.80
2019-05-19T10:44:45.002Z,48.30
2019-05-19T10:47:13.773Z,48.50
2019-05-19T10:49:43.162Z,47.70
2019-05-19T10:52:12.044Z,48.90
2019-05-19T10:54:40.781Z,48.10
2019-05-19T10:57:09.962Z,46.70
2019-05-19T10:59:38.749Z,47.40
2019-05-19T11:02:07.928Z,46.40
2019-05-19T11:04:36.635Z,46.30
2019-05-19T11:07:05.375Z,46.60
2019-05-19T11:09:34.582Z,47.10
2019-05-19T11:12:04.255Z,47.30
2019-05-19T11:14:32.929Z,46.80
2019-05-19T11:17:01.974Z,47.10
2019-05-19T11:19:31.295Z,47.20
2019-05-19T11:22:00.282Z,47.80
2019-05-19T11:24:32.739Z,48.20
2019-05-19T11:27:01.668Z,47.90
2019-05-19T11:29:30.506Z,48.30
2019-05-19T11:31:59.221Z,48.70
2019-05-19T11:34:28.339Z,49.40
2019-05-19T11:36:57.246Z,49.60
2019-05-19T11:39:26.562Z,49.30
2019-05-19T11:41:55.290Z,48.80
2019-05-19T11:44:24.496Z,48.80
2019-05-19T11:46:53.539Z,49.10
2019-05-19T11:49:22.503Z,48.60
2019-05-19T11:51:51.198Z,48.70
2019-05-19T11:54:20.313Z,48.60
2019-05-19T11:56:49.390Z,47.00
2019-05-19T11:59:18.109Z,47.60
2019-05-19T12:01:47.432Z,47.80
2019-05-19T12:04:16.214Z,47.50
2019-05-19T12:06:44.935Z,47.20
2019-05-19T12:09:13.717Z,47.20
2019-05-19T12:11:43.739Z,47.10
2019-05-19T12:14:12.700Z,47.80
2019-05-19T12:16:41.875Z,48.00
2019-05-19T12:19:10.629Z,48.80
2019-05-19T12:21:39.504Z,48.80
2019-05-19T12:24:08.324Z,48.80
2019-05-19T12:26:37.282Z,48.60
2019-05-19T12:29:05.970Z,48.50
2019-05-19T12:31:34.852Z,49.40
2019-05-19T12:34:03.747Z,49.30
2019-05-19T12:36:32.433Z,49.30
2019-05-19T12:39:01.230Z,48.90
2019-05-19T12:41:29.988Z,49.30
2019-05-19T12:43:59.084Z,49.30
2019-05-19T12:46:27.959Z,49.90
2019-05-19T12:48:56.928Z,49.00
2019-05-19T12:51:26.863Z,48.50
2019-05-19T12:53:55.934Z,49.10
2019-05-19T12:56:38.579Z,49.30
2019-05-19T12:58:55.195Z,49.70
2019-05-19T13:01:24.435Z,50.00
2019-05-19T13:03:53.434Z,49.40
2019-05-19T13:06:22.298Z,50.20
2019-05-19T13:08:54.132Z,50.10
2019-05-19T13:11:22.995Z,50.40
2019-05-19T13:13:51.739Z,50.20
2019-05-19T13:16:20.486Z,49.80
2019-05-19T13:18:49.208Z,49.40
2019-05-19T13:21:19.324Z,50.30
2019-05-19T13:23:48.635Z,50.40
2019-05-19T13:26:18.364Z,50.60
2019-05-19T13:28:47.052Z,50.30
2019-05-19T13:31:15.818Z,50.50
2019-05-19T13:33:44.508Z,50.50
2019-05-19T13:36:13.233Z,49.60
2019-05-19T13:38:44.423Z,49.90
2019-05-19T13:41:13.144Z,49.00
2019-05-19T13:43:41.893Z,48.20
2019-05-19T13:46:10.755Z,48.80
2019-05-19T13:48:39.420Z,48.50
2019-05-19T13:51:08.511Z,48.50
2019-05-19T13:53:37.254Z,48.20
2019-05-19T13:56:06.147Z,48.40
2019-05-19T13:58:35.070Z,46.40
2019-05-19T14:01:03.928Z,46.30
2019-05-19T14:03:32.846Z,50.20
2019-05-19T14:06:01.505Z,51.70
2019-05-19T14:08:30.294Z,53.70
2019-05-19T14:10:59.103Z,55.00
2019-05-19T14:13:27.970Z,56.10
2019-05-19T14:15:56.678Z,57.50
2019-05-19T14:18:25.379Z,58.40
2019-05-19T14:20:54.252Z,59.10
2019-05-19T14:23:23.402Z,58.90
2019-05-19T14:25:53.030Z,59.20
2019-05-19T14:28:21.804Z,59.50
2019-05-19T14:30:50.627Z,59.60
2019-05-19T14:33:19.630Z,59.50
2019-05-19T14:35:48.628Z,59.20
2019-05-19T14:38:17.363Z,58.70
2019-05-19T14:40:46.348Z,58.70
2019-05-19T14:43:17.375Z,58.60
2019-05-19T14:45:46.146Z,58.30
2019-05-19T14:48:15.073Z,57.50
2019-05-19T14:50:44.194Z,57.10
2019-05-19T14:53:13.153Z,58.20
2019-05-19T14:55:42.090Z,58.90
2019-05-19T14:58:10.787Z,58.90
2019-05-19T15:00:40.076Z,59.10
2019-05-19T15:03:09.018Z,59.90
2019-05-19T15:05:37.799Z,60.30
2019-05-19T15:08:06.966Z,60.20
2019-05-19T15:10:35.733Z,59.40
2019-05-19T15:13:04.458Z,59.30
2019-05-19T15:15:33.196Z,59.80
2019-05-19T15:18:02.523Z,58.90
2019-05-19T15:20:31.227Z,60.00
2019-05-19T15:22:59.942Z,58.40
2019-05-19T15:25:29.051Z,60.60
2019-05-19T15:28:05.220Z,61.70
2019-05-19T15:30:32.559Z,62.90
2019-05-19T15:33:01.298Z,61.90
2019-05-19T15:35:30.022Z,61.20
2019-05-19T15:37:59.328Z,58.70
2019-05-19T15:40:28.245Z,59.20
2019-05-19T15:42:57.932Z,60.80
2019-05-19T15:45:27.197Z,61.70
2019-05-19T15:47:55.923Z,63.20
2019-05-19T15:50:24.715Z,64.20
2019-05-19T15:52:53.804Z,64.80
2019-05-19T15:55:22.486Z,65.20
2019-05-19T15:57:51.256Z,66.30
2019-05-19T16:00:21.944Z,66.50
2019-05-19T16:02:50.909Z,66.20
2019-05-19T16:05:19.661Z,66.10
2019-05-19T16:07:49.038Z,65.40
2019-05-19T16:10:20.870Z,65.60
2019-05-19T16:12:49.606Z,64.90
2019-05-19T16:15:19.962Z,63.80
2019-05-19T16:17:48.708Z,63.90
2019-05-19T16:20:18.079Z,64.40
2019-05-19T16:22:46.962Z,64.10
2019-05-19T16:25:18.955Z,63.60
2019-05-19T16:27:47.785Z,62.80
2019-05-19T16:30:17.731Z,61.30
2019-05-19T16:32:46.673Z,61.80
2019-05-19T16:35:15.731Z,62.50
2019-05-19T16:37:44.567Z,63.30
2019-05-19T16:40:13.832Z,63.30
2019-05-19T16:42:42.622Z,64.30
2019-05-19T16:45:11.515Z,64.80
2019-05-19T16:47:40.318Z,65.10
2019-05-19T16:50:10.494Z,65.80
2019-05-19T16:52:39.357Z,65.70
2019-05-19T16:55:36.430Z,66.20
2019-05-19T16:58:20.232Z,67.00
2019-05-19T17:00:35.726Z,67.70
2019-05-19T17:03:04.686Z,68.00
2019-05-19T17:05:33.442Z,68.30
2019-05-19T17:08:02.170Z,69.00
2019-05-19T17:10:30.886Z,69.60
2019-05-19T17:12:59.946Z,70.10
2019-05-19T17:15:28.612Z,70.50
2019-05-19T17:17:57.417Z,71.10
2019-05-19T17:20:26.423Z,71.80
2019-05-19T17:22:55.382Z,72.00
2019-05-19T17:25:24.718Z,72.70
2019-05-19T17:27:53.727Z,73.40
2019-05-19T17:30:23.319Z,74.40
2019-05-19T17:32:52.781Z,74.70
2019-05-19T17:35:21.496Z,75.30
2019-05-19T17:37:50.480Z,76.10
2019-05-19T17:40:19.558Z,76.80
2019-05-19T17:42:48.653Z,77.30
2019-05-19T17:45:17.686Z,77.50
2019-05-19T17:47:46.646Z,77.90
2019-05-19T17:50:17.127Z,78.70
2019-05-19T17:52:45.896Z,79.00
2019-05-19T17:55:14.975Z,79.60
2019-05-19T17:57:45.489Z,80.10
2019-05-19T18:00:18.579Z,80.50
2019-05-19T18:02:47.380Z,81.40
2019-05-19T18:05:16.367Z,81.70
2019-05-19T18:07:45.112Z,82.10
2019-05-19T18:10:13.844Z,82.60
2019-05-19T18:12:42.544Z,83.00
2019-05-19T18:15:11.366Z,83.10
2019-05-19T18:17:40.271Z,83.80
2019-05-19T18:20:22.702Z,84.20
2019-05-19T18:22:39.426Z,84.60
2019-05-19T18:25:08.182Z,85.00
2019-05-19T18:27:38.623Z,85.20
2019-05-19T18:30:07.726Z,85.50
2019-05-19T18:32:36.407Z,85.80
2019-05-19T18:35:05.823Z,86.00
2019-05-19T18:37:34.703Z,86.10
2019-05-19T18:40:03.677Z,86.20
2019-05-19T18:42:32.607Z,86.50
2019-05-19T18:45:04.327Z,86.70
2019-05-19T18:47:33.574Z,86.40
2019-05-19T18:50:02.313Z,86.40
2019-05-19T18:52:31.003Z,86.20
2019-05-19T18:55:00.026Z,86.20
2019-05-19T18:57:29.013Z,86.00
2019-05-19T18:59:57.683Z,85.90
2019-05-19T19:02:26.477Z,85.70
2019-05-19T19:04:55.543Z,85.30
2019-05-19T19:07:43.699Z,85.10
2019-05-19T19:10:12.458Z,85.10
2019-05-19T19:12:41.334Z,85.50
2019-05-19T19:15:10.377Z,84.30
2019-05-19T19:17:39.161Z,84.10
2019-05-19T19:20:08.138Z,84.10
2019-05-19T19:22:36.839Z,84.10
2019-05-19T19:25:05.736Z,83.80
2019-05-19T19:27:34.624Z,83.70
2019-05-19T19:30:04.284Z,83.60
2019-05-19T19:32:33.326Z,83.50
2019-05-19T19:35:02.070Z,83.80
2019-05-19T19:37:30.973Z,83.90
2019-05-19T19:39:59.847Z,84.00
2019-05-19T19:42:28.573Z,84.30
2019-05-19T19:44:57.579Z,84.60
2019-05-19T19:47:26.379Z,84.70
2019-05-19T19:49:55.388Z,84.70
2019-05-19T19:52:24.427Z,85.60
2019-05-19T19:54:53.242Z,85.00
2019-05-19T19:57:22.351Z,85.10
2019-05-19T19:59:51.428Z,85.20
2019-05-19T20:02:20.320Z,85.30
2019-05-19T20:07:17.327Z,85.00
2019-05-19T20:09:46.082Z,85.80
2019-05-19T20:12:14.987Z,85.90
2019-05-19T20:14:43.684Z,86.60
2019-05-19T20:17:12.824Z,87.80
2019-05-19T20:19:41.574Z,87.80
2019-05-19T20:22:10.576Z,88.20
2019-05-19T20:24:39.464Z,88.60
2019-05-19T20:27:08.205Z,88.60
2019-05-19T20:29:37.107Z,88.60
2019-05-19T20:32:06.175Z,88.70
2019-05-19T20:34:35.329Z,89.20
2019-05-19T20:37:04.134Z,88.90
2019-05-19T20:39:33.150Z,89.20
2019-05-19T20:42:02.463Z,89.00
2019-05-19T20:44:31.335Z,88.80
2019-05-19T20:47:00.311Z,89.30
2019-05-19T20:49:29.038Z,89.60
2019-05-19T20:51:58.010Z,88.80
2019-05-19T20:54:27.106Z,88.40
2019-05-19T20:56:58.315Z,89.00
2019-05-19T20:59:27.330Z,89.50
2019-05-19T21:01:57.315Z,90.00
2019-05-19T21:04:26.183Z,90.10
2019-05-19T21:06:55.018Z,89.80
2019-05-19T21:09:23.850Z,90.30
2019-05-19T21:11:52.855Z,90.50
2019-05-19T21:14:21.514Z,90.90
2019-05-19T21:16:50.575Z,91.30
2019-05-19T21:19:19.502Z,91.20
2019-05-19T21:21:48.201Z,91.80
2019-05-19T21:24:17.021Z,92.30
2019-05-19T21:26:45.674Z,91.80
2019-05-19T21:29:14.345Z,92.20
2019-05-19T21:31:43.410Z,92.20
2019-05-19T21:34:12.091Z,92.10
2019-05-19T21:36:40.766Z,92.40
2019-05-19T21:39:09.575Z,92.50
2019-05-19T21:41:38.491Z,92.60
2019-05-19T21:44:07.598Z,93.10
2019-05-19T21:46:36.350Z,93.30
2019-05-19T21:49:05.058Z,93.30
2019-05-19T21:51:33.996Z,93.10
2019-05-19T21:54:02.964Z,93.20
2019-05-19T21:56:31.691Z,93.40
2019-05-19T21:59:00.526Z,93.60
2019-05-19T22:01:29.941Z,93.90
2019-05-19T22:03:58.787Z,93.70
2019-05-19T22:06:29.321Z,93.80
2019-05-19T22:08:58.422Z,93.50
2019-05-19T22:11:27.227Z,94.10
2019-05-19T22:13:56.143Z,93.80
2019-05-19T22:16:25.110Z,93.90
2019-05-19T22:18:53.854Z,94.00
2019-05-19T22:21:22.750Z,94.20
2019-05-19T22:23:51.557Z,94.50
2019-05-19T22:26:20.279Z,94.20
2019-05-19T22:28:49.063Z,94.40
2019-05-19T22:31:17.757Z,94.10
2019-05-19T22:33:46.444Z,94.30
2019-05-19T22:36:15.356Z,94.40
2019-05-19T22:38:44.336Z,94.50
2019-05-19T22:41:13.060Z,94.40
2019-05-19T22:43:42.015Z,94.60
2019-05-19T22:46:10.839Z,94.70
2019-05-19T22:48:39.939Z,94.80
2019-05-19T22:51:08.728Z,94.90
2019-05-19T22:53:37.551Z,95.10
2019-05-19T22:56:06.583Z,95.20
2019-05-19T22:58:35.726Z,95.30
2019-05-19T23:01:04.654Z,95.50
2019-05-19T23:03:33.587Z,95.60
2019-05-19T23:06:02.378Z,95.80
2019-05-19T23:08:31.106Z,95.70
2019-05-19T23:10:59.782Z,95.90
2019-05-19T23:13:28.778Z,96.10
2019-05-19T23:15:57.526Z,96.50
2019-05-19T23:18:26.205Z,96.20
2019-05-19T23:20:55.166Z,96.40
2019-05-19T23:23:23.934Z,96.50
2019-05-19T23:25:52.846Z,96.70
2019-05-19T23:28:21.518Z,96.70
2019-05-19T23:30:50.292Z,96.80
2019-05-19T23:33:18.970Z,97.00
2019-05-19T23:35:47.626Z,97.10
2019-05-19T23:38:16.533Z,97.20
2019-05-19T23:40:45.251Z,97.30
2019-05-19T23:43:14.170Z,97.50
2019-05-19T23:45:44.306Z,97.60
2019-05-19T23:48:13.056Z,97.60
2019-05-19T23:50:41.785Z,97.70
2019-05-19T23:53:10.519Z,97.70
2019-05-19T23:55:39.472Z,97.90
2019-05-19T23:58:08.293Z,98.20
